Northwest Alabama Regional Airport
KMSL : rendu visible

Aérodrome :











RETROUVEZ-NOUS SUR...

 
LOGIN :

S'inscrire | Disclaimer

   EN    FR    IT 

 









Légende :    VFR   VFR Marginal   IFR   IFR Intensif   IFR Très Intensif
Visi : 
Plafond : 
>= 8 km
>= 3000ft
5 à 8 km
1000 à 3000 ft
1500m à 5 km
500 à 1000 ft
800 à 1500m
200 à 500 ft
< 800m
< 200 ft
Symboles :   Orages  Brouillard  Fortes neiges  Fortes précipitations  Vent > 20 kt






- Altitude de l'aérodrome : 551 ft
- Code IATA : MSL


KMSL - Northwest Alabama Regional

DERNIER METAR :
  • 271253Z AUTO 13006KT 10SM -RA BKN007 OVC012 21/20 A2995 RMK AO2 RAB10 SLP138 P0003 T02110200

METARs EXPIRÉS :
  • 271153Z AUTO 14006KT 10SM OVC005 21/19 A2995 RMK AO2 RAB01E47 CIG 003V008 SLP135 P0004 60036 70111 T02110194 10211 20206 53008
  • 271145Z AUTO 14006KT 10SM -RA OVC005 21/19 A2995 RMK AO2 RAB01 CIG 003V008 P0004 T02060194
  • 271127Z AUTO 13005KT 10SM -RA OVC004 21/19 A2995 RMK AO2 RAB01 CIG 003V007 P0004 T02060194
  • 271053Z AUTO 14005KT 10SM OVC005 21/19 A2994 RMK AO2 SLP134 T02060194
  • 271020Z AUTO 14006KT 10SM BKN009 OVC014 21/19 A2993 RMK AO2 CIG 006V012 T02110194

TAF KMSL
Valide du 27 à 12h jusqu'au 28 à 12h UTC


271145Z 2712/2812 14006KT 6SM -SHRA BKN008 OVC015
TEMPO 2715/2717 VRB10G20KT 4SM TSRA BKN008CB OVC015
FM271700 15008KT 6SM -SHRA BKN020
FM272000 13006KT 6SM SHRA VCTS SCT015CB BKN035
PROB30 2721/2801 VRB15G30KT 3SM TSRA BKN010CB OVC025
FM280300 13003KT P6SM -SHRA SCT010 OVC030
FM280700 16002KT P6SM SCT008 BKN015
FIR KZME / Amérique du Nord



MET'MAP, la Météo Aéronautique d'un coup d'oeil ! - Copyright ORBIFLY Décembre 2007 - Disclaimer

ORBIFLY MET'MAP TEAM :

Programmation & Développement : Alexandra Zaïnal
Sur une idée originale de : Baudouin d'Aumeries
Assistance à la programmation : Marc-Olivier Méhu
Soutien technique & logistique : Manuel Goepfert

Contact : metmap@orbifly.com




SOURCES & CREDITS :

   NOAA       Earth
Advisory